Time;durP1;ratioP1;P1;durP2;ratioP2;P2;SDS_P1;SDS_P2;PMS_P1;PMS_P2;Temp;Humidity;BMP_temperature;BMP_pressure;BME280_temperature;BME280_humidity;BME280_pressure;Samples;Min_cycle;Max_cycle;Signal;HPM_P1;HPM_P2
2021/05/24 00:00:46;;;;;;;2.92;0.90;;;18.50;84.50;;;;;;5010803;28;20363;-73
2021/05/24 00:03:13;;;;;;;4.72;0.90;;;18.70;83.90;;;;;;5006326;28;20030;-73
2021/05/24 00:05:41;;;;;;;3.47;1.05;;;18.80;84.00;;;;;;5009882;28;20050;-66
2021/05/24 00:08:08;;;;;;;4.60;1.38;;;18.90;83.20;;;;;;5008932;28;20057;-72
2021/05/24 00:10:37;;;;;;;1.80;1.00;;;18.80;83.00;;;;;;5010429;28;20076;-68
2021/05/24 00:13:07;;;;;;;3.22;1.30;;;19.10;83.50;;;;;;5010409;28;20054;-68
2021/05/24 00:15:46;;;;;;;2.47;0.70;;;19.30;81.40;;;;;;5008843;28;20057;-73
2021/05/24 00:18:14;;;;;;;5.20;0.88;;;19.20;80.70;;;;;;5011008;28;20034;-68
2021/05/24 00:20:55;;;;;;;3.78;1.00;;;19.20;80.70;;;;;;5016801;28;20026;-72
2021/05/24 00:23:23;;;;;;;1.67;0.77;;;19.20;81.90;;;;;;5010793;28;20030;-65
2021/05/24 00:25:51;;;;;;;1.90;0.85;;;19.30;81.20;;;;;;5010200;28;20052;-67
2021/05/24 00:28:18;;;;;;;3.13;1.20;;;19.50;81.00;;;;;;5010720;28;20030;-67
2021/05/24 00:30:47;;;;;;;2.90;1.08;;;19.50;80.40;;;;;;5009984;28;20470;-73
2021/05/24 00:33:15;;;;;;;5.63;1.77;;;19.50;81.30;;;;;;5010401;28;20520;-67
2021/05/24 00:35:42;;;;;;;4.13;3.00;;;19.50;80.40;;;;;;5012541;28;20036;-66
2021/05/24 00:38:10;;;;;;;6.95;1.48;;;19.30;81.10;;;;;;5010474;28;20478;-74
2021/05/24 00:40:37;;;;;;;3.08;0.90;;;19.20;80.70;;;;;;5015844;28;20117;-72
2021/05/24 00:43:08;;;;;;;2.97;1.27;;;19.60;79.40;;;;;;5008263;28;20497;-73
2021/05/24 00:45:36;;;;;;;2.17;1.20;;;20.20;78.30;;;;;;5008715;28;20029;-74
2021/05/24 00:48:04;;;;;;;3.78;1.85;;;20.60;77.40;;;;;;5009609;28;20040;-66
2021/05/24 00:50:31;;;;;;;3.75;1.30;;;20.90;75.80;;;;;;5007594;28;20474;-73
2021/05/24 00:52:58;;;;;;;7.63;1.10;;;21.30;73.80;;;;;;5009186;28;20025;-72
2021/05/24 00:55:25;;;;;;;2.35;1.27;;;21.40;72.20;;;;;;5009768;28;20033;-66
2021/05/24 00:57:51;;;;;;;4.78;2.08;;;21.40;72.90;;;;;;5007014;28;20052;-71
2021/05/24 01:00:43;;;;;;;2.90;1.33;;;21.60;71.50;;;;;;5008789;28;20564;-72
2021/05/24 01:03:13;;;;;;;4.45;1.90;;;21.90;71.20;;;;;;5002976;28;20045;-72
2021/05/24 01:05:42;;;;;;;4.18;1.30;;;21.80;71.20;;;;;;5078821;23;20498;-69
2021/05/24 01:08:11;;;;;;;2.03;0.80;;;21.40;72.90;;;;;;5022367;28;20018;-69
2021/05/24 01:10:39;;;;;;;7.65;4.65;;;21.30;72.20;;;;;;5017937;28;20105;-66
2021/05/24 01:13:07;;;;;;;3.83;1.20;;;21.20;72.30;;;;;;5024944;28;20050;-65
2021/05/24 01:15:36;;;;;;;3.22;1.80;;;21.00;72.80;;;;;;5022406;28;20030;-67
2021/05/24 01:18:04;;;;;;;5.43;4.65;;;20.80;74.90;;;;;;5030627;28;20100;-67
2021/05/24 01:20:31;;;;;;;5.97;1.75;;;20.60;75.30;;;;;;5029522;28;20025;-67
2021/05/24 01:25:27;;;;;;;3.22;1.20;;;20.30;77.20;;;;;;5027043;28;20036;-72
2021/05/24 01:27:54;;;;;;;3.17;1.42;;;20.20;76.90;;;;;;5028666;28;20014;-68
2021/05/24 01:30:22;;;;;;;1.92;0.93;;;20.10;77.60;;;;;;5030138;28;20018;-73
2021/05/24 01:32:50;;;;;;;2.63;0.93;;;20.20;76.50;;;;;;5028476;28;20612;-72
2021/05/24 01:35:17;;;;;;;4.15;1.42;;;20.40;76.40;;;;;;5024772;28;20022;-68
2021/05/24 01:37:44;;;;;;;2.13;1.00;;;20.50;75.90;;;;;;5024884;28;20025;-72
2021/05/24 01:40:12;;;;;;;2.45;1.17;;;20.50;75.30;;;;;;5022755;28;20064;-72
2021/05/24 01:42:39;;;;;;;4.47;1.00;;;20.60;75.70;;;;;;5026739;28;20021;-71
2021/05/24 01:45:07;;;;;;;2.25;0.90;;;20.80;74.60;;;;;;5021939;28;20143;-68
2021/05/24 01:47:34;;;;;;;2.88;0.90;;;21.10;74.80;;;;;;5022184;28;20029;-68
2021/05/24 01:50:01;;;;;;;2.25;0.90;;;21.50;71.60;;;;;;5025068;28;20359;-66
2021/05/24 01:52:28;;;;;;;2.97;1.33;;;21.80;71.50;;;;;;5022691;28;20029;-73
2021/05/24 01:54:55;;;;;;;1.35;0.80;;;22.20;69.10;;;;;;5020900;28;20030;-68
2021/05/24 01:57:22;;;;;;;4.10;1.33;;;22.40;67.80;;;;;;5023737;28;20025;-72
2021/05/24 01:59:49;;;;;;;4.13;2.72;;;22.20;68.40;;;;;;5023476;28;20057;-72
2021/05/24 02:02:16;;;;;;;13.38;10.10;;;22.30;69.40;;;;;;5024097;28;20026;-73
2021/05/24 02:04:43;;;;;;;4.72;2.55;;;22.30;70.30;;;;;;5045983;28;20419;-69
2021/05/24 02:07:10;;;;;;;3.60;1.30;;;22.00;69.60;;;;;;5022614;28;20029;-72
2021/05/24 02:09:37;;;;;;;3.50;1.40;;;21.70;71.10;;;;;;5024285;28;20030;-69
2021/05/24 02:12:04;;;;;;;4.75;1.67;;;21.40;70.90;;;;;;5022268;28;20025;-72
2021/05/24 02:14:31;;;;;;;7.05;4.30;;;21.20;72.40;;;;;;5018776;28;20029;-72
2021/05/24 02:16:58;;;;;;;7.55;2.60;;;21.10;72.70;;;;;;5030152;28;20087;-69
2021/05/24 02:19:25;;;;;;;3.03;1.58;;;20.90;73.60;;;;;;5023860;28;20025;-66
2021/05/24 02:21:52;;;;;;;4.15;2.50;;;20.80;73.10;;;;;;5021405;28;20025;-69
2021/05/24 02:24:19;;;;;;;3.50;1.98;;;20.70;74.70;;;;;;5022814;28;20033;-69
2021/05/24 02:26:46;;;;;;;2.45;1.52;;;20.60;74.60;;;;;;5022965;28;20036;-71
2021/05/24 02:29:14;;;;;;;1.55;1.23;;;20.50;74.40;;;;;;5025548;28;21221;-69
2021/05/24 02:31:41;;;;;;;4.00;2.20;;;20.50;74.70;;;;;;5022777;28;20022;-73
2021/05/24 02:34:08;;;;;;;4.97;1.70;;;20.60;74.20;;;;;;5021865;28;20517;-72
2021/05/24 02:36:36;;;;;;;3.97;2.00;;;20.60;74.60;;;;;;5025532;28;20033;-67
2021/05/24 02:39:08;;;;;;;4.32;1.85;;;20.50;75.60;;;;;;5024706;28;20057;-69
2021/05/24 02:41:36;;;;;;;26.45;19.77;;;20.50;75.10;;;;;;5020374;28;20036;-67
2021/05/24 02:44:05;;;;;;;4.50;1.67;;;20.50;74.90;;;;;;5025443;28;20083;-67
2021/05/24 02:46:32;;;;;;;6.15;2.40;;;20.50;75.60;;;;;;5015288;28;20078;-71
2021/05/24 02:48:59;;;;;;;3.65;1.27;;;20.50;74.50;;;;;;5017821;28;20037;-68
2021/05/24 02:51:26;;;;;;;4.85;1.60;;;20.50;74.50;;;;;;5022031;28;20018;-72
2021/05/24 02:53:53;;;;;;;3.30;2.00;;;20.40;75.40;;;;;;5020946;28;20025;-70
2021/05/24 02:56:20;;;;;;;4.60;1.75;;;20.30;75.80;;;;;;5019635;28;20242;-69
2021/05/24 02:58:47;;;;;;;4.43;2.03;;;20.30;76.10;;;;;;5016752;28;20029;-73
2021/05/24 03:01:14;;;;;;;4.22;1.65;;;20.30;76.00;;;;;;5017664;28;20580;-70
2021/05/24 03:03:42;;;;;;;3.05;1.40;;;20.30;76.00;;;;;;5020664;28;20026;-70
2021/05/24 03:06:10;;;;;;;2.60;1.63;;;20.20;75.70;;;;;;5018621;28;20041;-68
2021/05/24 03:08:37;;;;;;;3.50;1.30;;;20.20;76.00;;;;;;5017428;28;20034;-70
2021/05/24 03:11:04;;;;;;;3.80;1.70;;;20.10;77.20;;;;;;5018211;28;20068;-69
2021/05/24 03:13:31;;;;;;;4.00;2.53;;;20.00;77.30;;;;;;5017172;28;20104;-66
2021/05/24 03:15:58;;;;;;;4.45;2.75;;;20.00;77.60;;;;;;5018608;28;20056;-73
2021/05/24 03:18:24;;;;;;;5.65;2.85;;;19.90;78.60;;;;;;5014016;28;20096;-73
2021/05/24 03:20:51;;;;;;;4.75;1.92;;;19.90;79.00;;;;;;5021114;28;20025;-67
2021/05/24 03:23:18;;;;;;;3.17;1.33;;;19.90;79.30;;;;;;5017657;28;20415;-70
2021/05/24 03:25:45;;;;;;;5.43;1.48;;;19.90;78.30;;;;;;5017464;28;20037;-66
2021/05/24 03:28:12;;;;;;;3.63;1.20;;;19.80;77.20;;;;;;5015279;28;20535;-73
2021/05/24 03:30:39;;;;;;;3.80;1.55;;;19.80;76.40;;;;;;5019110;28;20459;-68
2021/05/24 03:33:06;;;;;;;4.25;1.60;;;19.70;77.00;;;;;;5015704;28;20430;-68
2021/05/24 03:35:33;;;;;;;3.72;1.65;;;19.60;77.30;;;;;;5017308;28;20021;-66
2021/05/24 03:38:01;;;;;;;5.65;2.00;;;19.50;79.50;;;;;;5015276;28;20579;-70
2021/05/24 03:40:28;;;;;;;5.07;2.00;;;19.40;80.50;;;;;;5018796;28;20467;-68
2021/05/24 03:42:55;;;;;;;4.45;2.00;;;19.20;81.20;;;;;;5019353;28;20040;-67
2021/05/24 03:45:23;;;;;;;4.60;2.05;;;19.10;82.60;;;;;;5018354;28;20017;-68
2021/05/24 03:47:50;;;;;;;7.90;4.22;;;19.20;82.50;;;;;;5021893;28;20033;-68
2021/05/24 03:50:18;;;;;;;7.32;3.35;;;19.20;82.00;;;;;;5019246;28;20071;-69
2021/05/24 03:52:46;;;;;;;3.97;2.08;;;19.10;82.90;;;;;;5019884;28;20021;-68
2021/05/24 03:55:14;;;;;;;5.00;2.20;;;19.10;81.80;;;;;;5013181;28;20094;-70
2021/05/24 03:57:41;;;;;;;6.75;2.03;;;19.20;81.80;;;;;;5022312;28;20030;-66
2021/05/24 04:00:10;;;;;;;5.97;2.40;;;19.10;82.10;;;;;;5022750;28;20155;-75
2021/05/24 04:02:37;;;;;;;5.32;2.10;;;19.10;81.40;;;;;;5018401;28;20029;-68
2021/05/24 04:05:16;;;;;;;8.13;2.20;;;19.00;81.60;;;;;;5017296;28;20132;-69
2021/05/24 04:07:49;;;;;;;6.32;1.90;;;19.00;81.80;;;;;;5022553;28;20479;-73
2021/05/24 04:10:18;;;;;;;4.13;1.90;;;19.00;81.70;;;;;;5020480;28;20014;-68
2021/05/24 04:12:46;;;;;;;2.83;1.48;;;18.90;81.80;;;;;;5020103;28;20087;-76
2021/05/24 04:15:14;;;;;;;3.85;1.52;;;18.90;82.20;;;;;;5016578;28;20028;-71
2021/05/24 04:17:42;;;;;;;4.13;1.52;;;19.00;82.00;;;;;;5017162;28;20112;-76
2021/05/24 04:20:11;;;;;;;4.43;1.85;;;19.00;82.20;;;;;;5018761;28;20512;-67
2021/05/24 04:22:40;;;;;;;5.07;2.28;;;19.00;81.80;;;;;;5019809;28;20022;-74
2021/05/24 04:25:09;;;;;;;4.10;1.63;;;19.00;81.30;;;;;;5018984;28;20029;-67
2021/05/24 04:27:36;;;;;;;3.38;1.30;;;19.00;81.40;;;;;;5018988;28;20025;-74
2021/05/24 04:30:05;;;;;;;4.90;1.98;;;19.00;81.20;;;;;;5021306;28;20032;-74
2021/05/24 04:32:32;;;;;;;2.42;1.20;;;18.90;81.70;;;;;;5019559;28;20363;-74
2021/05/24 04:34:59;;;;;;;3.75;1.35;;;18.90;81.70;;;;;;5020234;28;20101;-66
2021/05/24 04:37:26;;;;;;;7.15;1.67;;;18.90;81.70;;;;;;5023310;28;20073;-69
2021/05/24 04:39:53;;;;;;;6.40;1.60;;;18.80;82.50;;;;;;5024077;28;20013;-65
2021/05/24 04:42:22;;;;;;;4.43;1.77;;;18.80;81.60;;;;;;5022671;28;20032;-69
2021/05/24 04:44:49;;;;;;;5.72;1.67;;;18.80;81.20;;;;;;5024445;28;20031;-68
2021/05/24 04:47:17;;;;;;;3.88;1.63;;;18.70;81.60;;;;;;5021823;28;20056;-65
2021/05/24 04:49:52;;;;;;;4.82;1.50;;;18.80;81.50;;;;;;5021746;28;20701;-67
2021/05/24 04:52:19;;;;;;;5.63;1.70;;;18.70;81.50;;;;;;5023048;28;20014;-67
2021/05/24 04:54:47;;;;;;;3.30;1.73;;;18.70;81.70;;;;;;5018659;28;20394;-74
2021/05/24 04:57:15;;;;;;;3.83;1.60;;;18.60;82.10;;;;;;5020452;28;20017;-74
2021/05/24 04:59:42;;;;;;;6.68;1.85;;;18.60;82.00;;;;;;5023752;28;20018;-66
2021/05/24 05:02:09;;;;;;;5.68;1.63;;;18.60;82.30;;;;;;5025372;28;20018;-67
2021/05/24 05:04:36;;;;;;;3.92;2.03;;;18.60;82.50;;;;;;5022614;28;20497;-74
2021/05/24 05:07:03;;;;;;;5.28;1.88;;;18.60;82.30;;;;;;5023972;28;20180;-75
2021/05/24 05:09:30;;;;;;;4.18;1.70;;;18.60;82.60;;;;;;5024087;28;20030;-68
2021/05/24 05:11:57;;;;;;;3.83;1.63;;;18.50;82.00;;;;;;5023667;28;20459;-69
2021/05/24 05:14:25;;;;;;;4.75;1.95;;;18.60;82.20;;;;;;5022572;28;20026;-66
2021/05/24 05:16:53;;;;;;;4.50;1.48;;;18.60;82.30;;;;;;5021978;28;20314;-69
2021/05/24 05:19:20;;;;;;;4.70;1.60;;;18.60;82.30;;;;;;5022931;28;21193;-67
2021/05/24 05:21:48;;;;;;;2.83;1.50;;;18.60;82.50;;;;;;5018068;28;20052;-73
2021/05/24 05:24:15;;;;;;;5.85;1.60;;;18.70;81.60;;;;;;5035880;28;20026;-74
2021/05/24 05:26:43;;;;;;;5.40;1.55;;;18.70;81.20;;;;;;5025612;28;20032;-74
2021/05/24 05:29:10;;;;;;;6.07;1.70;;;18.70;81.40;;;;;;5027543;28;20030;-74
2021/05/24 05:31:37;;;;;;;5.70;1.58;;;18.80;81.80;;;;;;5024417;28;20462;-70
2021/05/24 05:34:05;;;;;;;5.25;3.47;;;18.80;81.00;;;;;;5027073;28;20098;-68
2021/05/24 05:36:33;;;;;;;3.08;1.52;;;18.80;80.70;;;;;;5032560;28;20059;-70
2021/05/24 05:39:00;;;;;;;3.60;1.52;;;18.80;80.20;;;;;;5030975;28;20105;-70
2021/05/24 05:41:27;;;;;;;3.53;1.60;;;18.80;80.00;;;;;;5030427;28;20080;-68
2021/05/24 05:43:54;;;;;;;9.45;7.55;;;18.80;80.40;;;;;;5030884;28;20060;-75
2021/05/24 05:46:21;;;;;;;4.55;1.75;;;18.80;81.30;;;;;;5025751;28;20504;-76
2021/05/24 05:48:48;;;;;;;3.97;2.10;;;18.80;79.70;;;;;;5025909;28;20027;-71
2021/05/24 05:51:15;;;;;;;6.15;1.33;;;18.80;79.30;;;;;;5028995;28;20026;-71
2021/05/24 05:53:42;;;;;;;3.35;1.45;;;18.90;78.80;;;;;;5030425;28;20020;-68
2021/05/24 05:56:09;;;;;;;2.92;1.65;;;18.90;79.10;;;;;;5029909;28;20085;-66
2021/05/24 05:58:36;;;;;;;3.97;1.60;;;18.90;77.90;;;;;;5025896;28;20025;-65
2021/05/24 06:01:04;;;;;;;3.33;1.80;;;18.80;76.70;;;;;;5024863;28;20037;-69
2021/05/24 06:03:31;;;;;;;1.10;0.90;;;18.90;76.40;;;;;;5023175;28;20133;-65
2021/05/24 06:05:58;;;;;;;2.30;1.08;;;18.80;76.50;;;;;;5020463;28;20108;-69
2021/05/24 06:08:25;;;;;;;2.63;0.93;;;18.80;77.20;;;;;;5024869;28;20108;-65
2021/05/24 06:10:52;;;;;;;4.55;1.67;;;18.90;76.60;;;;;;5027351;28;20381;-66
2021/05/24 06:13:19;;;;;;;5.95;1.20;;;18.80;76.80;;;;;;5027111;28;20021;-66
2021/05/24 06:15:46;;;;;;;2.17;1.27;;;18.80;75.70;;;;;;5024164;28;20018;-74
2021/05/24 06:18:13;;;;;;;3.10;1.42;;;18.80;76.30;;;;;;5025427;28;20501;-66
2021/05/24 06:20:43;;;;;;;4.68;1.13;;;18.70;76.90;;;;;;5027106;28;20433;-75
2021/05/24 06:23:10;;;;;;;2.15;1.00;;;18.60;77.70;;;;;;5028948;28;20073;-74
2021/05/24 06:25:38;;;;;;;3.30;1.13;;;18.60;76.70;;;;;;5026495;28;20032;-71
2021/05/24 06:28:05;;;;;;;5.18;1.40;;;18.50;77.50;;;;;;5030642;28;20063;-73
2021/05/24 06:30:32;;;;;;;3.28;1.40;;;18.50;77.70;;;;;;5024753;28;20017;-75
2021/05/24 06:33:10;;;;;;;3.51;1.59;;;18.40;77.90;;;;;;4655808;28;10001915;-75
2021/05/24 06:35:38;;;;;;;4.18;1.23;;;18.30;78.60;;;;;;5027522;28;20075;-66
2021/05/24 06:38:04;;;;;;;2.38;1.27;;;18.30;78.50;;;;;;5028909;28;20033;-70
2021/05/24 06:40:31;;;;;;;4.13;2.53;;;18.20;79.70;;;;;;5030867;28;20017;-73
2021/05/24 06:42:59;;;;;;;8.45;6.90;;;18.20;79.70;;;;;;5034244;28;20095;-73
2021/05/24 06:45:26;;;;;;;8.32;5.25;;;18.20;79.70;;;;;;5032080;28;20025;-74
2021/05/24 06:47:53;;;;;;;16.20;13.02;;;18.10;80.80;;;;;;5033712;28;20394;-72
2021/05/24 06:50:20;;;;;;;18.98;16.88;;;18.00;80.80;;;;;;5027912;28;20458;-74
2021/05/24 06:52:47;;;;;;;8.02;7.20;;;18.00;81.00;;;;;;5020257;28;20076;-67
2021/05/24 06:55:15;;;;;;;2.75;2.35;;;18.00;81.20;;;;;;5028407;28;20516;-73
2021/05/24 06:57:42;;;;;;;2.47;1.48;;;18.00;81.30;;;;;;5031198;28;20507;-74
2021/05/24 07:00:11;;;;;;;3.80;1.23;;;17.90;81.40;;;;;;5020268;28;20119;-66
2021/05/24 07:02:39;;;;;;;5.55;1.23;;;17.90;81.80;;;;;;5026243;28;20053;-69
2021/05/24 07:05:07;;;;;;;3.58;0.98;;;17.80;82.70;;;;;;5025987;28;20045;-67
2021/05/24 07:07:35;;;;;;;4.30;1.30;;;17.70;83.00;;;;;;5026033;28;20018;-66
2021/05/24 07:10:04;;;;;;;2.08;1.20;;;17.70;83.80;;;;;;5025890;28;20026;-68
2021/05/24 07:12:31;;;;;;;5.43;1.85;;;17.70;84.50;;;;;;5027564;28;20115;-67
2021/05/24 07:14:58;;;;;;;4.07;1.30;;;17.60;85.10;;;;;;5020516;28;20471;-67
2021/05/24 07:17:25;;;;;;;3.13;1.30;;;17.60;86.90;;;;;;5030766;28;20098;-66
2021/05/24 07:19:51;;;;;;;3.53;1.00;;;17.50;87.50;;;;;;5026895;28;20025;-67
2021/05/24 07:22:18;;;;;;;3.70;1.67;;;17.50;88.60;;;;;;5024468;28;20021;-73
2021/05/24 07:24:45;;;;;;;5.50;2.13;;;17.50;89.20;;;;;;5025473;28;20380;-72
2021/05/24 07:27:12;;;;;;;3.63;1.63;;;17.40;89.70;;;;;;5027140;28;20032;-68
2021/05/24 07:29:39;;;;;;;7.75;2.53;;;17.40;90.10;;;;;;5025960;28;20025;-71
2021/05/24 07:32:10;;;;;;;2.72;1.80;;;17.30;90.20;;;;;;5025389;28;20025;-71
2021/05/24 07:34:38;;;;;;;2.65;1.40;;;17.30;90.30;;;;;;5023379;28;20025;-67
2021/05/24 07:37:06;;;;;;;5.18;1.48;;;17.30;90.40;;;;;;5026237;28;20334;-67
2021/05/24 07:39:33;;;;;;;5.15;1.35;;;17.30;90.50;;;;;;5025925;28;20032;-69
2021/05/24 07:42:02;;;;;;;2.72;1.33;;;17.30;90.40;;;;;;5025598;28;20033;-67
2021/05/24 07:44:35;;;;;;;4.13;1.55;;;17.30;90.50;;;;;;5027486;28;20474;-67
2021/05/24 07:47:03;;;;;;;2.05;1.02;;;17.20;90.40;;;;;;5024647;28;20458;-74
2021/05/24 07:49:30;;;;;;;4.82;1.40;;;17.20;90.80;;;;;;5025585;28;20079;-68
2021/05/24 07:51:57;;;;;;;4.88;1.38;;;17.10;90.90;;;;;;5023733;28;20536;-69
2021/05/24 07:54:25;;;;;;;2.60;1.30;;;17.10;91.00;;;;;;5026118;28;20025;-73
2021/05/24 07:56:52;;;;;;;3.92;1.38;;;17.10;91.00;;;;;;5025648;28;20029;-70
2021/05/24 07:59:19;;;;;;;3.85;1.23;;;17.00;90.90;;;;;;5023682;28;20026;-69
2021/05/24 08:01:46;;;;;;;1.92;1.08;;;17.00;90.70;;;;;;5025836;28;20030;-68
2021/05/24 08:04:13;;;;;;;3.72;1.15;;;16.90;90.60;;;;;;5026768;28;20525;-67
2021/05/24 08:06:40;;;;;;;4.63;1.20;;;16.80;90.80;;;;;;5027932;28;20037;-69
2021/05/24 08:09:07;;;;;;;3.97;1.80;;;16.70;90.90;;;;;;5024343;28;20029;-68
2021/05/24 08:11:35;;;;;;;6.28;3.20;;;16.60;90.80;;;;;;5024785;28;20482;-76
2021/05/24 08:14:02;;;;;;;12.57;11.15;;;16.50;91.00;;;;;;5021055;28;20021;-68
2021/05/24 08:16:29;;;;;;;2.72;1.70;;;16.50;91.00;;;;;;5023826;28;20397;-67
2021/05/24 08:18:57;;;;;;;2.28;1.27;;;16.50;91.10;;;;;;5022703;28;20029;-69
2021/05/24 08:21:24;;;;;;;5.88;5.22;;;16.40;91.20;;;;;;5025814;28;20036;-69
2021/05/24 08:23:51;;;;;;;5.50;4.03;;;16.30;91.40;;;;;;5021906;28;20113;-67
2021/05/24 08:26:18;;;;;;;7.00;3.83;;;16.20;91.50;;;;;;5023078;28;20029;-68
2021/05/24 08:28:45;;;;;;;4.85;2.72;;;16.20;91.70;;;;;;5020957;28;20018;-74
2021/05/24 08:31:12;;;;;;;3.95;1.75;;;16.20;91.50;;;;;;5023162;28;20117;-67
2021/05/24 08:33:39;;;;;;;6.95;4.10;;;16.20;91.50;;;;;;5023773;28;20022;-68
2021/05/24 08:36:06;;;;;;;7.88;3.15;;;16.20;91.80;;;;;;5026479;28;20033;-70
2021/05/24 08:38:34;;;;;;;7.40;4.90;;;16.10;91.90;;;;;;5029237;28;20040;-69
2021/05/24 08:41:09;;;;;;;10.60;6.22;;;16.10;91.80;;;;;;5038337;28;20029;-67
2021/05/24 08:43:39;;;;;;;5.53;3.67;;;16.10;91.70;;;;;;5031992;28;20075;-69
2021/05/24 08:46:07;;;;;;;5.68;3.10;;;16.10;91.80;;;;;;5024969;28;20076;-66
2021/05/24 08:48:35;;;;;;;10.23;7.30;;;16.10;91.90;;;;;;5027546;28;20021;-66
2021/05/24 08:51:03;;;;;;;8.63;3.75;;;16.10;92.00;;;;;;5028146;28;20021;-66
2021/05/24 08:53:31;;;;;;;11.63;8.85;;;16.00;92.10;;;;;;5028487;28;20022;-70
2021/05/24 08:55:59;;;;;;;3.28;2.22;;;16.00;92.10;;;;;;5027112;28;20084;-70
2021/05/24 08:58:26;;;;;;;4.50;1.60;;;16.00;92.10;;;;;;5043751;28;20034;-68
2021/05/24 09:00:53;;;;;;;9.25;5.28;;;15.90;92.20;;;;;;5028080;28;20029;-68
2021/05/24 09:03:25;;;;;;;5.32;2.97;;;15.90;92.10;;;;;;5026580;28;20529;-76
2021/05/24 09:05:53;;;;;;;6.20;3.83;;;15.90;92.30;;;;;;5028909;28;20501;-67
2021/05/24 09:08:33;;;;;;;5.13;2.58;;;15.80;92.50;;;;;;5027748;28;20035;-66
2021/05/24 09:11:00;;;;;;;5.63;2.88;;;15.80;92.80;;;;;;5028592;28;20039;-65
2021/05/24 09:13:31;;;;;;;6.00;2.65;;;15.80;93.20;;;;;;5030597;28;20535;-72
2021/05/24 09:15:59;;;;;;;4.65;2.58;;;15.80;92.90;;;;;;5032466;28;20095;-62
2021/05/24 09:18:26;;;;;;;5.57;2.13;;;15.80;92.90;;;;;;5027629;28;20029;-64
2021/05/24 09:20:55;;;;;;;7.18;2.30;;;15.80;92.80;;;;;;5026583;28;20033;-70
2021/05/24 09:23:30;;;;;;;7.20;4.03;;;15.80;93.00;;;;;;5024593;28;20116;-68
2021/05/24 09:26:06;;;;;;;11.75;8.50;;;15.80;93.10;;;;;;5024897;28;20029;-63
2021/05/24 09:28:44;;;;;;;16.75;13.45;;;15.90;93.10;;;;;;5027644;28;20107;-68
2021/05/24 09:31:16;;;;;;;15.25;12.80;;;15.90;93.10;;;;;;5024662;28;20044;-64
2021/05/24 09:33:47;;;;;;;10.75;8.15;;;15.90;92.80;;;;;;5024074;28;20544;-72
2021/05/24 09:36:15;;;;;;;14.48;10.38;;;16.00;92.80;;;;;;5026582;28;20059;-68
2021/05/24 09:38:55;;;;;;;7.82;3.72;;;16.00;92.70;;;;;;5026085;28;20040;-69
2021/05/24 09:41:24;;;;;;;15.85;8.40;;;16.10;92.60;;;;;;5025512;28;20031;-65
2021/05/24 09:43:53;;;;;;;10.07;6.97;;;16.10;92.40;;;;;;5025564;28;20579;-69
2021/05/24 09:46:20;;;;;;;6.80;3.20;;;16.00;92.60;;;;;;5029793;28;20091;-69
2021/05/24 09:49:00;;;;;;;4.97;2.55;;;16.00;92.70;;;;;;5026217;28;20072;-67
2021/05/24 09:51:29;;;;;;;7.72;4.20;;;16.00;92.70;;;;;;5028393;28;20026;-71
2021/05/24 09:54:04;;;;;;;5.53;3.08;;;16.00;92.70;;;;;;5043496;28;20402;-68
2021/05/24 09:56:36;;;;;;;6.00;2.60;;;16.00;92.80;;;;;;5029065;28;20037;-68
2021/05/24 09:59:18;;;;;;;4.88;2.88;;;16.00;92.90;;;;;;5029049;28;20336;-74
2021/05/24 10:01:49;;;;;;;6.57;2.75;;;15.90;92.90;;;;;;5023952;28;20044;-67
2021/05/24 10:04:19;;;;;;;5.72;2.80;;;15.90;92.90;;;;;;5029635;28;20021;-67
2021/05/24 10:06:46;;;;;;;6.38;3.10;;;15.90;93.00;;;;;;5025258;28;20095;-69
2021/05/24 10:09:15;;;;;;;5.50;2.75;;;15.90;93.20;;;;;;5027497;28;20040;-66
2021/05/24 10:11:45;;;;;;;8.85;3.05;;;15.90;92.90;;;;;;5044880;28;20060;-68
2021/05/24 10:14:18;;;;;;;3.75;2.47;;;16.00;93.00;;;;;;5024814;28;20025;-69
2021/05/24 10:16:48;;;;;;;5.40;2.78;;;15.90;92.80;;;;;;5026867;28;20034;-69
2021/05/24 10:19:20;;;;;;;5.43;2.70;;;15.90;92.80;;;;;;5027765;28;20037;-67
2021/05/24 10:21:49;;;;;;;6.45;3.33;;;16.00;92.70;;;;;;5028409;28;20029;-67
2021/05/24 10:24:20;;;;;;;5.43;2.97;;;15.90;92.90;;;;;;5036539;28;20024;-66
2021/05/24 10:26:48;;;;;;;4.85;2.70;;;16.00;93.00;;;;;;5026328;28;20021;-67
2021/05/24 10:29:18;;;;;;;6.68;2.78;;;16.00;92.70;;;;;;5029552;28;21054;-67
2021/05/24 10:31:46;;;;;;;5.28;2.42;;;16.00;92.60;;;;;;5023454;28;20037;-68
2021/05/24 10:34:21;;;;;;;4.03;2.35;;;16.00;92.60;;;;;;5040706;28;20029;-67
2021/05/24 10:37:07;;;;;;;3.85;2.25;;;16.00;92.70;;;;;;5027639;28;20037;-68
2021/05/24 10:40:01;;;;;;;4.53;2.30;;;15.90;92.80;;;;;;5025143;28;20445;-67
2021/05/24 10:42:44;;;;;;;3.97;2.10;;;15.90;92.80;;;;;;5025733;28;20351;-67
2021/05/24 10:45:22;;;;;;;3.55;2.20;;;15.90;92.80;;;;;;5026057;28;20033;-67
2021/05/24 10:48:00;;;;;;;5.47;2.22;;;15.90;92.70;;;;;;5041878;28;20029;-65
2021/05/24 10:50:33;;;;;;;5.30;2.22;;;15.90;92.80;;;;;;5019926;28;20501;-65
2021/05/24 10:53:00;;;;;;;;;;;15.90;92.90;;;;;;5026892;28;20022;-66
2021/05/24 10:55:27;;;;;;;4.30;2.17;;;15.80;93.00;;;;;;5027411;28;19972;-67
2021/05/24 10:57:58;;;;;;;6.93;2.55;;;15.80;93.00;;;;;;5024411;28;20379;-66
2021/05/24 11:00:47;;;;;;;4.40;2.53;;;15.80;93.10;;;;;;5020387;28;20401;-65
2021/05/24 11:03:14;;;;;;;6.10;3.22;;;15.80;93.10;;;;;;5026834;28;20402;-69
2021/05/24 11:05:41;;;;;;;6.35;3.10;;;15.70;93.20;;;;;;5024134;28;20136;-67
2021/05/24 11:08:08;;;;;;;3.88;2.50;;;15.80;93.10;;;;;;5025843;28;20025;-69
2021/05/24 11:10:55;;;;;;;4.25;2.45;;;15.80;93.10;;;;;;5020645;28;20051;-68
2021/05/24 11:13:25;;;;;;;5.25;2.88;;;15.80;93.20;;;;;;5026393;28;20025;-66
2021/05/24 11:15:52;;;;;;;7.82;3.60;;;15.80;93.30;;;;;;5028466;28;20033;-67
2021/05/24 11:18:24;;;;;;;3.70;2.42;;;15.80;93.30;;;;;;5028860;28;20030;-68
2021/05/24 11:21:15;;;;;;;6.70;2.70;;;15.80;93.30;;;;;;5028399;28;20031;-69
2021/05/24 11:26:29;;;;;;;9.32;4.40;;;15.80;93.40;;;;;;5028751;28;20131;-69
2021/05/24 11:29:00;;;;;;;;;;;15.70;93.40;;;;;;5028833;28;20041;-70
2021/05/24 11:31:53;;;;;;;7.85;4.78;;;15.70;93.50;;;;;;5028887;28;19960;-69
2021/05/24 11:34:35;;;;;;;8.88;4.93;;;15.70;93.60;;;;;;5024901;28;20037;-69
2021/05/24 11:37:05;;;;;;;7.93;3.60;;;15.60;93.50;;;;;;5042673;28;20456;-67
2021/05/24 11:39:35;;;;;;;4.82;3.33;;;15.70;93.50;;;;;;5021760;28;20032;-68
2021/05/24 11:42:06;;;;;;;6.18;2.92;;;15.60;93.50;;;;;;5026948;28;20037;-69
2021/05/24 11:44:39;;;;;;;3.92;2.80;;;15.60;93.40;;;;;;5024514;28;20092;-68
2021/05/24 11:47:11;;;;;;;4.22;2.72;;;15.70;93.50;;;;;;5024320;28;20025;-69
2021/05/24 11:49:46;;;;;;;4.30;2.72;;;15.60;93.40;;;;;;5041756;28;20447;-68
2021/05/24 11:52:17;;;;;;;3.90;2.88;;;15.60;93.60;;;;;;5026079;28;20048;-68
2021/05/24 11:54:48;;;;;;;5.50;3.53;;;15.50;93.70;;;;;;5024846;28;20434;-68
2021/05/24 11:57:20;;;;;;;6.47;4.18;;;15.50;93.70;;;;;;5025545;28;20087;-67
2021/05/24 11:59:48;;;;;;;5.97;4.28;;;15.40;93.80;;;;;;5024296;28;20304;-68
2021/05/24 12:02:16;;;;;;;8.27;6.38;;;15.50;93.60;;;;;;5019840;28;20393;-69
2021/05/24 12:04:45;;;;;;;7.30;5.53;;;15.50;93.80;;;;;;5025817;28;20129;-68
2021/05/24 12:07:18;;;;;;;5.47;4.05;;;15.50;93.60;;;;;;5024808;28;20025;-69
2021/05/24 12:09:53;;;;;;;6.43;3.28;;;15.50;93.70;;;;;;5025334;28;20429;-68
2021/05/24 12:12:25;;;;;;;6.30;3.58;;;15.50;93.70;;;;;;5024512;28;20371;-68
2021/05/24 12:15:01;;;;;;;16.95;13.98;;;15.60;93.70;;;;;;5018383;28;20178;-68
2021/05/24 12:17:34;;;;;;;8.65;4.85;;;15.50;93.80;;;;;;5024981;28;20168;-67
2021/05/24 12:20:06;;;;;;;6.22;2.92;;;15.50;93.80;;;;;;5025222;28;20064;-69
2021/05/24 12:22:40;;;;;;;5.00;2.50;;;15.50;93.80;;;;;;5025679;28;20064;-67
2021/05/24 12:25:08;;;;;;;4.22;2.88;;;15.50;93.80;;;;;;5025574;28;20037;-69
2021/05/24 12:27:35;;;;;;;5.50;3.08;;;15.50;94.00;;;;;;5028054;28;20087;-67
2021/05/24 12:30:13;;;;;;;4.95;3.47;;;15.50;93.60;;;;;;5035250;28;20025;-67
2021/05/24 12:32:48;;;;;;;6.20;3.30;;;15.50;93.80;;;;;;5026674;28;20029;-69
2021/05/24 12:35:36;;;;;;;8.30;3.80;;;15.50;93.90;;;;;;5024545;28;20478;-67
2021/05/24 12:38:17;;;;;;;7.25;3.35;;;15.50;94.10;;;;;;5018917;28;20029;-69
2021/05/24 12:40:45;;;;;;;3.97;2.90;;;15.40;94.10;;;;;;5034003;28;20022;-67
2021/05/24 12:43:12;;;;;;;6.60;3.53;;;15.40;94.10;;;;;;5016346;28;20021;-67
2021/05/24 12:45:39;;;;;;;7.80;2.80;;;15.40;94.20;;;;;;5028259;28;20026;-67
2021/05/24 12:48:14;;;;;;;5.80;2.90;;;15.50;94.20;;;;;;5027628;28;20048;-67
2021/05/24 12:50:44;;;;;;;5.53;3.67;;;15.50;93.90;;;;;;5026824;28;20033;-67
2021/05/24 12:53:16;;;;;;;4.45;3.28;;;15.60;93.70;;;;;;5023653;28;20029;-67
2021/05/24 12:55:43;;;;;;;4.63;3.00;;;15.50;93.80;;;;;;5025960;28;20036;-68
2021/05/24 12:58:12;;;;;;;4.85;3.08;;;15.50;93.70;;;;;;5026502;28;20057;-67
2021/05/24 13:00:48;;;;;;;4.60;3.45;;;15.50;93.70;;;;;;5027589;28;20025;-68